South Yarmouth, Massachusetts
Current Conditions -  °F | °C
As of 12:56 PM on Thursday 27 Nov 2014 (Local Time) from KHYA Reporting Station
Overcast Overcast  
Wind Chill: 33°   Ceiling: 2000
Heat Index: 39°   Visibility: 10mi
Dew Point: 32°   Wind: 8mph
Humidity: 76%   Direction: 330°NNW
Pressure: 29.92"   Gusts: NA
Location:  41.67°N, 70.19°W
Report Text: KHYA 271756Z 33007KT 10SM OVC020 04/00 A2992 RMK AO2 SLP133 60004 T00390000 10044 20011 55001
Loading
Personal Weather Stations






























Interactive Weather Map New forecast layout! Learn more

10-Day Weather Forecast

Advertisements
Track Severe Weather on mobile